sim
Sign-in with your pilot id or email,
or register
Callsign
Passwort

Schedule Details

Flight Number: DLH2239
Departure: Paris Charles de Gaulle Airport (LFPG) at 05:20
Arrival: Munich Airport (EDDM) at 06:45
Route: Lufthansa Passenger Schedule. Enter filed route here before submitting Pirep.

Weather Information
Getting current METAR information for LFPG 291630Z 23006KT 9999 FEW013 BKN033 17/15 Q1018 NOSIG
Getting current METAR information for EDDM 291620Z 27008KT 9999 BKN020 12/09 Q1019 NOSIG

Schedule Frequency

Route Map